x

South Huron - 43nm East Of Oscoda, Mi (45008) Wave Buoy

11:50pm - Fri 25th Jul 2014 All times are CDT. -5 hours from GMT.

  • Sig Wave height 0.7ft
  • Average Period 3s
  • Wind
    7mph, 9mph gusts
  • Sea Temp 63°f
  • Air Temp 65°f
  • Sea Pressure 1012.4mb
  • South Huron - 43nm East Of Oscoda, Mi
  • South Huron - 43nm East Of Oscoda, Mi

More Historic Weather Station data

Upgrade to MSW Pro to gain access to the past 30 days of data for over 8000 Wavebouys and Weather Stations around the globe.

Join Pro

Comparision Forecast

View Surf forecast
   
Fri 07/25 11:50pm 0.7ft  -  3s 7 9 mph 1012.4mb 63f 65f
10:50pm 1ft 3s 3s 9
mph
1012.6mb 63f 66f
9:50pm 1ft 3s 3s 9 11 mph 1012.8mb 63f 66f
8:50pm 1.3ft 3s 3s 9
mph
1012.5mb 63f 67f
7:50pm 1.3ft 3s 3s 7 9 mph 1012.5mb 63f 66f
6:50pm 1.3ft 3s 3s 7 9 mph 1012.8mb 63f 66f
5:50pm 1ft 3s 3s 9 11 mph 1012.8mb 63f 66f
4:50pm 1ft 3s 3s 7 9 mph 1013.2mb 63f 66f
3:50pm 1ft 3s 3s 7 9 mph 1013.5mb 63f 65f
2:50pm 1ft 3s 3s 4 7 mph 1014.2mb 63f 65f
1:50pm 1ft 3s 3s 7 9 mph 1014.4mb 62f 65f
12:50pm 1ft 3s 3s 4
mph
1015mb 62f 64f
11:50am 1ft 3s 3s 7 9 mph 1015.5mb 62f 63f
10:50am 1.3ft 3s 3s 9
mph
1015.9mb 62f 63f
9:50am 1.3ft 3s 3s 9
mph
1016.6mb 61f 63f
8:50am 1.3ft 4s 3s 11 13 mph 1016.8mb 61f 62f
7:50am 1.3ft 3s 3s 9
mph
1016.6mb 61f 62f
6:50am 1ft 3s 3s 11 13 mph 1016mb 61f 62f
5:50am 1ft 3s 3s 11 13 mph 1016.5mb 61f 63f
4:50am 1ft 3s 3s 11 13 mph 1016.6mb 62f 63f
3:50am 0.7ft  -  3s 9 11 mph 1016.2mb 62f 63f
2:50am 0.3ft  -  3s 9 11 mph 1016.1mb 62f 63f
1:50am 0.3ft  -  3s 9 11 mph 1016.1mb 62f 63f
12:50am 0.3ft  -  3s 9
mph
1016.5mb 62f 63f
Thu 07/24 11:50pm 0.3ft  -  3s 4 7 mph 1016.7mb 62f 63f
10:50pm 0.3ft  -  3s 4
mph
1016.9mb 62f 63f
8:50pm 0.3ft  -  3s 2
mph
1017.2mb 62f 62f
7:50pm 0.3ft  -  3s 4 7 mph 1017.4mb 62f 62f
6:50pm 0.7ft  -  3s 7
mph
1017.2mb 62f 62f
5:50pm 0.7ft  -  3s 4
mph
1016.9mb 63f 62f
4:50pm 0.7ft  -  3s 2 4 mph 1017.2mb 63f 62f
3:50pm 0.7ft  -  3s 2
mph
1018.1mb 62f 61f
2:50pm 1ft 4s 3s 4
mph
1018.8mb 62f 60f
1:50pm 1ft 4s 3s 4 7 mph 1019.2mb 61f 60f
12:50pm 1.3ft 4s 3s 9
mph
1019.4mb 61f 59f
11:50am 1.3ft 4s 3s 9 11 mph 1019.7mb 61f 59f
10:50am 1.6ft 4s 3s 11
mph
1019.9mb 61f 59f
9:50am 1.6ft 4s 3s 11 13 mph 1019.6mb 61f 59f
8:50am 2ft 4s 3s 11 13 mph 1019.7mb 61f 59f
7:50am 1.6ft 4s 3s 13 16 mph 1019.4mb 60f 59f
6:50am 1.6ft 4s 3s 13 16 mph 1019.1mb 60f 58f
5:50am 1.6ft 4s 4s 13 16 mph 1018.8mb 60f 58f
4:50am 1.6ft 5s 4s 11
mph
1018.5mb 60f 58f
3:50am 1.6ft 5s 4s 11 13 mph 1018.3mb 60f 59f
2:50am 2ft 5s 4s 13 16 mph 1018.2mb 60f 59f
1:50am 2ft 4s 3s 13 16 mph 1018.5mb 60f 59f
12:50am 1.6ft 4s 3s 13 16 mph 1018.5mb 60f 60f
Wed 07/23 11:50pm 2ft 4s 4s 11 13 mph 1018.3mb 60f 60f
10:50pm 2.5ft 5s 4s 13 16 mph 1018.1mb 60f 61f
9:50pm 2.5ft 4s 4s 18 20 mph 1017.8mb 60f 61f
8:50pm 2.5ft 4s 4s 18 20 mph 1017.8mb 60f 62f
7:50pm 2.5ft 5s 4s 18 22 mph 1017.3mb 60f 62f
6:50pm 2.5ft 5s 4s 13 16 mph 1017.5mb 60f 61f
5:50pm 3ft 5s 4s 16 18 mph 1017.4mb 60f 61f
4:50pm 3.5ft 5s 4s 18 22 mph 1017.3mb 60f 60f
3:50pm 3ft 5s 4s 18 22 mph 1017.4mb 60f 60f
2:50pm 3ft 5s 4s 18 22 mph 1018.1mb 60f 59f
1:50pm 3.5ft 5s 4s 18 22 mph 1018.1mb 60f 59f
12:50pm 3.5ft 6s 4s 18 22 mph 1017.7mb 60f 59f
11:50am 3.5ft 6s 4s 20 22 mph 1017.2mb 60f 59f
10:50am 4ft 6s 4s 20 25 mph 1016.3mb 60f 59f
9:50am 4ft 6s 4s 22 27 mph 1016.2mb 60f 59f
8:50am 4.5ft 6s 4s 25 29 mph 1015.3mb 60f 60f
7:50am 4.5ft 6s 5s 22 27 mph 1015.4mb 61f 60f
6:50am 4.5ft 6s 5s 22 25 mph 1015.6mb 61f 60f
5:50am 4.5ft 6s 5s 18 22 mph 1015.2mb 61f 60f
4:50am 4.5ft 5s 4s 20 22 mph 1014.3mb 62f 60f
3:50am 2.5ft 4s 3s 20 25 mph 1013mb 62f 61f
2:50am 2ft 3s 3s 20 27 mph 1011.7mb 62f 64f
1:50am 1.6ft 4s 3s 13 16 mph 1011.5mb 63f 63f
12:50am 1.3ft 4s 3s 16 18 mph 1011.7mb 64f 64f
Tue 07/22 11:50pm 1.3ft 4s 3s 11 13 mph 1011.7mb 65f 66f
10:50pm 1.6ft 4s 3s 16 20 mph 1011.4mb 66f 71f
9:50pm 1.3ft 4s 3s 11 13 mph 1011mb 67f 72f
8:50pm 1.3ft 3s 3s 9 11 mph 1010.8mb 67f 72f
7:50pm 1.6ft 4s 3s 11 13 mph 1010.5mb 67f 72f
6:50pm 2ft 4s 3s 11 16 mph 1010.7mb 66f 72f
5:50pm 2ft 4s 3s 16 18 mph 1010.3mb 66f 72f
4:50pm 2ft 4s 3s 16 18 mph 1011.2mb 66f 72f
3:50pm 2.5ft 4s 3s 16 18 mph 1012.3mb 66f 71f
2:50pm 2.5ft 4s 3s 18 20 mph 1012.7mb 65f 71f
1:50pm 2ft 4s 3s 18 20 mph 1013mb 65f 70f
12:50pm 1.6ft 3s 3s 16 18 mph 1013.6mb 66f 69f
11:50am 1.3ft 3s 3s 13 16 mph 1014.9mb 65f 69f
10:50am 1.3ft 3s 3s 13 16 mph 1015.4mb 65f 69f
9:50am 1ft 3s 3s 13 16 mph 1016.4mb 65f 69f
8:50am 1ft 3s 3s 13 16 mph 1017mb 65f 69f
7:50am 0.7ft  -  3s 11 13 mph 1018.1mb 65f 69f
6:50am 0.7ft  -  3s 9 11 mph 1018.3mb 66f 69f
5:50am 0.7ft  -  3s 11 13 mph 1017.7mb 66f 69f